Time;durP1;ratioP1;P1;durP2;ratioP2;P2;SDS_P1;SDS_P2;PMS_P1;PMS_P2;Temp;Humidity;BMP_temperature;BMP_pressure;BME280_temperature;BME280_humidity;BME280_pressure;Samples;Min_cycle;Max_cycle;Signal;HPM_P1;HPM_P2
2023/11/28 00:01:08;;;;;;;5.37;4.97;;;;;;;3.24;87.68;98706.53;5015282;28;20278;-82
2023/11/28 00:03:35;;;;;;;5.67;5.27;;;;;;;3.21;88.06;98710.88;5018811;28;20211;-81
2023/11/28 00:06:01;;;;;;;5.60;5.20;;;;;;;3.20;87.78;98722.09;5018669;28;20198;-82
2023/11/28 00:08:28;;;;;;;5.67;5.27;;;;;;;3.18;87.81;98720.38;5008138;28;20222;-84
2023/11/28 00:10:54;;;;;;;5.60;5.27;;;;;;;3.15;88.13;98714.41;5016068;28;20242;-82
2023/11/28 00:13:21;;;;;;;6.10;5.60;;;;;;;3.15;88.33;98711.84;5016321;28;20210;-83
2023/11/28 00:15:49;;;;;;;5.43;5.03;;;;;;;3.14;88.11;98720.47;5016801;28;20210;-83
2023/11/28 00:18:15;;;;;;;5.63;5.23;;;;;;;3.11;88.20;98708.47;5017839;28;20203;-80
2023/11/28 00:20:42;;;;;;;6.20;5.70;;;;;;;3.14;88.11;98713.56;5016835;28;20261;-82
2023/11/28 00:23:09;;;;;;;6.07;5.67;;;;;;;3.10;88.23;98709.34;5016524;28;20203;-84
2023/11/28 00:25:35;;;;;;;6.03;5.53;;;;;;;3.13;88.11;98726.47;5016533;28;20215;-82
2023/11/28 00:28:02;;;;;;;5.67;5.27;;;;;;;3.11;87.74;98717.91;5018260;28;20238;-82
2023/11/28 00:30:28;;;;;;;6.00;5.50;;;;;;;3.08;87.96;98723.16;5017627;28;20639;-82
2023/11/28 00:32:56;;;;;;;5.30;4.90;;;;;;;3.03;88.15;98718.03;5016235;28;20230;-82
2023/11/28 00:35:23;;;;;;;5.30;4.87;;;;;;;3.04;88.25;98714.59;5010646;28;20215;-82
2023/11/28 00:37:49;;;;;;;5.30;4.90;;;;;;;3.00;88.15;98720.69;5016763;28;20740;-82
2023/11/28 00:40:16;;;;;;;5.33;4.93;;;;;;;2.95;88.22;98719.91;5017030;28;20227;-81
2023/11/28 00:42:42;;;;;;;6.20;5.70;;;;;;;2.98;88.46;98704.41;5017488;28;20211;-83
2023/11/28 00:45:12;;;;;;;5.73;5.23;;;;;;;3.00;88.38;98710.38;5018282;28;20213;-82
2023/11/28 00:47:39;;;;;;;5.73;5.33;;;;;;;2.96;88.77;98713.88;5016183;28;20227;-84
2023/11/28 00:50:07;;;;;;;6.23;5.73;;;;;;;2.89;88.46;98709.69;5016610;28;20258;-82
2023/11/28 00:52:34;;;;;;;5.43;5.03;;;;;;;2.95;88.69;98707.00;5015904;28;20673;-82
2023/11/28 00:55:00;;;;;;;6.60;6.10;;;;;;;2.96;88.37;98711.31;5017129;28;20617;-82
2023/11/28 00:57:27;;;;;;;5.60;5.20;;;;;;;2.90;88.32;98722.56;5017953;28;20199;-82
2023/11/28 00:59:53;;;;;;;6.17;5.67;;;;;;;2.85;88.56;98723.50;5017465;28;20230;-83
2023/11/28 01:02:20;;;;;;;6.30;5.80;;;;;;;2.87;88.94;98719.16;5016262;28;20207;-82
2023/11/28 01:04:46;;;;;;;5.83;5.43;;;;;;;2.92;89.02;98719.97;5016212;28;20204;-83
2023/11/28 01:07:15;;;;;;;6.73;6.23;;;;;;;2.86;88.74;98720.06;5017027;28;20214;-84
2023/11/28 01:09:41;;;;;;;6.27;5.83;;;;;;;2.81;89.39;98716.69;5008717;28;20673;-82
2023/11/28 01:12:08;;;;;;;6.67;6.17;;;;;;;2.80;89.60;98702.97;5016735;28;20710;-82
2023/11/28 01:14:34;;;;;;;6.03;5.60;;;;;;;2.82;89.07;98718.41;5016974;28;20692;-84
2023/11/28 01:17:04;;;;;;;6.30;5.80;;;;;;;2.76;89.03;98714.19;5017944;28;20208;-82
2023/11/28 01:19:30;;;;;;;6.60;6.00;;;;;;;2.78;89.15;98709.88;5017534;28;20234;-82
2023/11/28 01:21:57;;;;;;;6.33;5.90;;;;;;;2.78;88.90;98713.28;5016281;28;20204;-82
2023/11/28 01:24:24;;;;;;;6.23;5.73;;;;;;;2.76;89.26;98727.94;5016378;28;20658;-82
2023/11/28 01:26:51;;;;;;;5.80;5.40;;;;;;;2.78;89.30;98715.03;5017670;28;20211;-82
2023/11/28 01:29:17;;;;;;;5.80;5.07;;;;;;;2.76;88.80;98733.06;5016991;28;20723;-83
2023/11/28 01:31:44;;;;;;;5.37;4.97;;;;;;;2.80;89.29;98727.91;5016761;28;20207;-82
2023/11/28 01:34:10;;;;;;;6.47;5.97;;;;;;;2.83;88.69;98730.41;5015970;28;20209;-82
2023/11/28 01:36:39;;;;;;;5.47;5.00;;;;;;;2.80;88.36;98739.03;5015849;28;20209;-81
2023/11/28 01:39:07;;;;;;;5.40;5.00;;;;;;;2.81;88.06;98748.47;5016512;28;20282;-83
2023/11/28 01:41:35;;;;;;;5.73;5.23;;;;;;;2.85;87.95;98754.41;5017950;28;20210;-83
2023/11/28 01:44:03;;;;;;;5.17;4.80;;;;;;;2.77;88.46;98762.25;5016174;28;20677;-82
2023/11/28 01:46:30;;;;;;;4.53;4.23;;;;;;;2.80;88.52;98753.66;5017557;28;20199;-84
2023/11/28 01:48:57;;;;;;;4.63;4.23;;;;;;;2.79;88.44;98765.66;5017018;28;20354;-82
2023/11/28 01:51:23;;;;;;;5.23;4.83;;;;;;;2.78;88.11;98767.41;5016097;28;20219;-83
2023/11/28 01:53:52;;;;;;;4.73;4.33;;;;;;;2.74;88.03;98765.75;5018248;28;20665;-83
2023/11/28 01:56:19;;;;;;;4.90;4.50;;;;;;;2.66;88.35;98774.47;5017466;28;20207;-83
2023/11/28 01:58:46;;;;;;;5.63;5.13;;;;;;;2.65;89.30;98765.84;5015624;28;20237;-83
2023/11/28 02:01:13;;;;;;;5.47;5.00;;;;;;;2.72;88.81;98759.75;5016169;28;20237;-84
2023/11/28 02:03:42;;;;;;;4.90;4.60;;;;;;;2.70;89.04;98768.41;5019335;28;20206;-83
2023/11/28 02:06:09;;;;;;;4.93;4.53;;;;;;;2.70;88.96;98764.09;5020838;28;20674;-84
2023/11/28 02:08:36;;;;;;;5.20;4.80;;;;;;;2.70;89.00;98758.09;5021599;28;20519;-84
2023/11/28 02:11:03;;;;;;;5.00;4.60;;;;;;;2.79;88.77;98763.09;5020546;28;20238;-84
2023/11/28 02:13:31;;;;;;;4.87;4.47;;;;;;;2.79;88.44;98768.25;5021528;28;20203;-83
2023/11/28 02:16:08;;;;;;;4.67;4.37;;;;;;;2.76;87.77;98782.03;5020112;28;20667;-83
2023/11/28 02:18:35;;;;;;;4.17;3.87;;;;;;;2.80;88.24;98788.00;5020141;28;20708;-83
2023/11/28 02:21:01;;;;;;;4.50;4.10;;;;;;;2.82;87.91;98788.81;5020343;28;20223;-81
2023/11/28 02:23:28;;;;;;;4.90;4.50;;;;;;;2.79;87.64;98799.16;5021868;28;20678;-84
2023/11/28 02:25:57;;;;;;;4.83;4.43;;;;;;;2.82;87.71;98800.88;5020899;28;20567;-83
2023/11/28 02:28:26;;;;;;;4.73;4.33;;;;;;;2.83;87.29;98811.13;5021718;28;20223;-83
2023/11/28 02:30:53;;;;;;;4.33;3.93;;;;;;;2.78;87.44;98816.34;5021105;28;20268;-80
2023/11/28 02:33:20;;;;;;;4.43;4.13;;;;;;;2.76;87.41;98819.81;5020444;28;20210;-83
2023/11/28 02:35:46;;;;;;;4.23;3.93;;;;;;;2.72;87.89;98820.75;5020068;28;20661;-83
2023/11/28 02:38:13;;;;;;;4.17;3.87;;;;;;;2.75;87.34;98815.53;5011066;28;20213;-82
2023/11/28 02:40:40;;;;;;;5.07;4.67;;;;;;;2.72;87.63;98826.75;5018875;28;20246;-83
2023/11/28 02:43:06;;;;;;;4.77;4.37;;;;;;;2.72;88.17;98828.47;5020214;28;20229;-84
2023/11/28 02:45:34;;;;;;;4.40;4.10;;;;;;;2.67;87.83;98835.41;5020057;28;20685;-83
2023/11/28 02:48:00;;;;;;;4.33;3.93;;;;;;;2.71;87.38;98837.91;5020606;28;20211;-83
2023/11/28 02:50:27;;;;;;;4.83;4.43;;;;;;;2.71;87.60;98842.22;5013656;28;20227;-84
2023/11/28 02:52:54;;;;;;;4.73;4.43;;;;;;;2.70;87.61;98841.38;5017791;28;20211;-85
2023/11/28 02:55:21;;;;;;;5.27;4.80;;;;;;;2.69;87.55;98851.69;5020284;28;20198;-83
2023/11/28 02:57:47;;;;;;;4.73;4.43;;;;;;;2.67;87.11;98853.44;5011101;28;20207;-83
2023/11/28 03:00:15;;;;;;;5.00;4.53;;;;;;;2.66;87.25;98855.16;5020763;28;20723;-83
2023/11/28 03:02:42;;;;;;;4.87;4.47;;;;;;;2.67;87.03;98853.44;5019912;28;20354;-83
2023/11/28 03:05:09;;;;;;;5.27;4.87;;;;;;;2.58;87.12;98862.13;5021473;28;20202;-85
2023/11/28 03:07:35;;;;;;;5.00;4.60;;;;;;;2.59;86.97;98862.09;5019278;28;20211;-84
2023/11/28 03:10:02;;;;;;;4.77;4.43;;;;;;;2.53;87.48;98858.75;5018469;28;20226;-83
2023/11/28 03:12:28;;;;;;;4.97;4.53;;;;;;;2.51;87.67;98853.59;5019793;28;20207;-84
2023/11/28 03:14:55;;;;;;;5.87;5.37;;;;;;;2.49;88.63;98845.06;5020033;28;20559;-83
2023/11/28 03:17:22;;;;;;;5.77;5.37;;;;;;;2.56;88.43;98840.69;5020845;28;20208;-84
2023/11/28 03:19:50;;;;;;;5.80;5.30;;;;;;;2.58;87.94;98841.53;5022752;28;20276;-84
2023/11/28 03:22:16;;;;;;;5.70;5.13;;;;;;;2.57;87.36;98856.09;5018092;28;20232;-83
2023/11/28 03:24:43;;;;;;;5.63;5.13;;;;;;;2.59;87.16;98859.50;5021912;28;20206;-83
2023/11/28 03:27:12;;;;;;;5.20;4.80;;;;;;;2.57;87.13;98873.28;5019589;28;20217;-81
2023/11/28 03:29:39;;;;;;;6.00;5.43;;;;;;;2.55;87.41;98872.47;5019643;28;20284;-84
2023/11/28 03:32:06;;;;;;;5.97;5.50;;;;;;;2.58;86.87;98878.44;5019049;28;20214;-85
2023/11/28 03:34:32;;;;;;;5.53;5.03;;;;;;;2.58;87.01;98875.00;5018872;28;20646;-84
2023/11/28 03:37:00;;;;;;;6.90;6.40;;;;;;;2.57;86.62;98891.31;5019659;28;20203;-83
2023/11/28 03:39:27;;;;;;;5.97;5.47;;;;;;;2.44;87.31;98900.06;5018404;28;20199;-83
2023/11/28 03:41:53;;;;;;;6.07;5.47;;;;;;;2.47;87.08;98888.00;5019367;28;20826;-84
2023/11/28 03:44:19;;;;;;;5.57;5.17;;;;;;;2.49;87.02;98899.13;5014120;28;20228;-83
2023/11/28 03:46:46;;;;;;;5.43;4.97;;;;;;;2.45;87.36;98896.63;5014841;28;20214;-83
2023/11/28 03:49:12;;;;;;;6.10;5.60;;;;;;;2.48;86.76;98899.16;5019739;28;20225;-84
2023/11/28 03:51:39;;;;;;;6.17;5.67;;;;;;;2.48;86.93;98906.88;5018108;28;20210;-84
2023/11/28 03:54:07;;;;;;;5.93;5.43;;;;;;;2.44;87.36;98897.47;5019938;28;20233;-80
2023/11/28 03:56:33;;;;;;;6.20;5.70;;;;;;;2.47;88.30;98890.56;5017510;28;20665;-84
2023/11/28 03:59:00;;;;;;;6.30;5.70;;;;;;;2.43;88.01;98891.47;5018522;28;20199;-83
2023/11/28 04:01:26;;;;;;;5.43;4.93;;;;;;;2.47;87.66;98895.72;5018359;28;20234;-83
2023/11/28 04:03:53;;;;;;;5.70;5.30;;;;;;;2.46;87.47;98901.75;5019379;28;20592;-85
2023/11/28 04:06:19;;;;;;;5.90;5.40;;;;;;;2.47;87.29;98907.75;5018142;28;20697;-81
2023/11/28 04:08:46;;;;;;;5.70;5.07;;;;;;;2.42;87.12;98909.50;5019340;28;20796;-84
2023/11/28 04:11:13;;;;;;;5.80;5.30;;;;;;;2.39;87.05;98921.56;5018319;28;20373;-84
2023/11/28 04:13:40;;;;;;;5.93;5.43;;;;;;;2.41;87.13;98931.84;5018030;28;20666;-84
2023/11/28 04:16:07;;;;;;;6.43;5.83;;;;;;;2.40;87.30;98932.72;5011673;28;20214;-85
2023/11/28 04:18:33;;;;;;;6.10;4.90;;;;;;;2.38;86.64;98940.47;5019432;28;20203;-82
2023/11/28 04:21:00;;;;;;;8.93;5.20;;;;;;;2.38;86.66;98935.31;5018674;28;20752;-81
2023/11/28 04:23:27;;;;;;;5.23;4.73;;;;;;;2.35;86.96;98940.47;5019868;28;20234;-83
2023/11/28 04:25:53;;;;;;;5.33;4.83;;;;;;;2.35;87.03;98950.78;5019810;28;20241;-84
2023/11/28 04:28:21;;;;;;;4.77;4.37;;;;;;;2.26;86.72;98952.59;5019877;28;20199;-84
2023/11/28 04:30:47;;;;;;;6.07;5.50;;;;;;;2.24;86.67;98956.91;5018431;28;20223;-85
2023/11/28 04:33:14;;;;;;;5.47;5.00;;;;;;;2.24;87.33;98946.59;5019072;28;20202;-83
2023/11/28 04:35:40;;;;;;;6.07;4.87;;;;;;;2.24;86.84;98946.59;5019286;28;20267;-84
2023/11/28 04:38:07;;;;;;;6.03;5.53;;;;;;;2.21;86.95;98952.63;5016171;28;20298;-83
2023/11/28 04:40:33;;;;;;;6.20;5.53;;;;;;;2.19;87.08;98951.81;5013923;28;20693;-84
2023/11/28 04:43:00;;;;;;;6.40;5.73;;;;;;;2.24;87.72;98950.06;5018600;28;20207;-84
2023/11/28 04:45:28;;;;;;;5.77;5.27;;;;;;;2.25;87.57;98949.16;5020140;28;20199;-84
2023/11/28 04:47:54;;;;;;;5.43;4.93;;;;;;;2.19;88.07;98946.66;5019978;28;20206;-83
2023/11/28 04:50:21;;;;;;;6.20;5.60;;;;;;;2.23;87.88;98945.75;5018503;28;20235;-84
2023/11/28 04:52:47;;;;;;;6.03;5.43;;;;;;;2.24;87.40;98950.06;5017817;28;20611;-83
2023/11/28 04:55:13;;;;;;;6.27;5.67;;;;;;;2.25;87.77;98958.63;5020079;28;20210;-85
2023/11/28 04:57:40;;;;;;;5.80;5.30;;;;;;;2.15;87.95;98957.84;5020719;28;20209;-84
2023/11/28 05:00:08;;;;;;;5.90;5.33;;;;;;;2.22;87.21;98961.22;5019009;28;20739;-83
2023/11/28 05:02:36;;;;;;;6.13;5.53;;;;;;;2.15;86.99;98971.56;5020463;28;20207;-83
2023/11/28 05:05:04;;;;;;;6.23;5.60;;;;;;;2.15;86.79;98981.00;5013412;28;20218;-84
2023/11/28 05:07:30;;;;;;;6.20;5.60;;;;;;;2.16;86.90;98982.69;5022572;28;20226;-84
2023/11/28 05:09:56;;;;;;;5.80;5.27;;;;;;;2.14;86.80;98987.00;5021239;28;20693;-85
2023/11/28 05:12:24;;;;;;;5.77;5.20;;;;;;;2.15;86.90;98993.88;5022319;28;20207;-84
2023/11/28 05:14:50;;;;;;;7.20;5.57;;;;;;;2.11;86.70;98997.34;5021865;28;20342;-85
2023/11/28 05:17:17;;;;;;;6.00;5.50;;;;;;;2.14;86.07;98998.19;5059427;23;20238;-82
2023/11/28 05:19:44;;;;;;;6.33;5.47;;;;;;;2.16;85.79;99022.19;4990068;28;20211;-79
2023/11/28 05:22:11;;;;;;;7.23;5.87;;;;;;;2.04;86.10;99024.84;5010440;28;20216;-78
2023/11/28 05:24:37;;;;;;;6.53;5.87;;;;;;;1.98;86.12;99038.63;5012794;28;20691;-79
2023/11/28 05:27:04;;;;;;;6.37;5.70;;;;;;;1.98;86.55;99048.03;5013503;28;20247;-79
2023/11/28 05:29:30;;;;;;;8.13;6.80;;;;;;;2.02;86.56;99049.72;5012846;28;20227;-79
2023/11/28 05:31:56;;;;;;;7.47;6.43;;;;;;;1.99;85.99;99055.75;5012926;28;20203;-78
2023/11/28 05:34:23;;;;;;;6.47;5.83;;;;;;;2.04;86.03;99066.00;5013582;28;20574;-79
2023/11/28 05:36:51;;;;;;;6.53;5.60;;;;;;;1.92;85.15;99073.81;5013138;28;20228;-82
2023/11/28 05:39:17;;;;;;;7.87;6.07;;;;;;;1.98;84.71;99091.78;5017620;28;20203;-82
2023/11/28 05:41:44;;;;;;;6.57;5.60;;;;;;;1.91;84.50;99103.84;5015216;28;20591;-81
2023/11/28 05:44:10;;;;;;;8.57;5.83;;;;;;;1.78;84.26;99117.63;5016161;28;20289;-81
2023/11/28 05:46:37;;;;;;;7.90;5.13;;;;;;;1.79;84.68;99117.63;4997864;28;20228;-82
2023/11/28 05:49:03;;;;;;;5.67;5.07;;;;;;;1.84;85.26;99107.31;5007130;28;20735;-81
2023/11/28 05:51:31;;;;;;;6.53;5.93;;;;;;;1.85;85.09;99127.03;5016364;28;20207;-81
2023/11/28 05:53:59;;;;;;;6.80;6.10;;;;;;;1.88;85.17;99129.56;5017229;28;20211;-81
2023/11/28 05:56:26;;;;;;;6.47;5.87;;;;;;;1.88;84.11;99141.59;5018121;28;20254;-81
2023/11/28 05:58:52;;;;;;;5.77;5.27;;;;;;;1.91;84.30;99152.72;5018244;28;20223;-82
2023/11/28 06:01:19;;;;;;;5.27;4.77;;;;;;;1.82;84.47;99159.63;5016381;28;20202;-78
2023/11/28 06:03:46;;;;;;;7.13;5.20;;;;;;;1.79;84.51;99170.81;5017159;28;20203;-81
2023/11/28 06:06:12;;;;;;;6.13;4.50;;;;;;;1.76;84.96;99163.97;5015476;28;20227;-81
2023/11/28 06:08:39;;;;;;;6.40;5.40;;;;;;;1.83;84.19;99167.34;5016534;28;20203;-79
2023/11/28 06:11:09;;;;;;;8.93;5.93;;;;;;;1.81;83.84;99184.50;5015358;28;20230;-79
2023/11/28 06:13:36;;;;;;;5.70;5.07;;;;;;;1.78;84.02;99198.25;5016215;28;20198;-81
2023/11/28 06:16:05;;;;;;;6.07;4.83;;;;;;;1.75;84.11;99203.41;5001093;28;20267;-81
2023/11/28 06:18:31;;;;;;;8.40;6.20;;;;;;;1.66;83.78;99210.28;5001197;28;20667;-79
2023/11/28 06:20:57;;;;;;;6.20;5.20;;;;;;;1.67;83.77;99225.72;5004655;28;20269;-81
2023/11/28 06:23:24;;;;;;;6.40;5.17;;;;;;;1.64;83.73;99228.28;5017614;28;20285;-82
2023/11/28 06:25:50;;;;;;;7.77;4.93;;;;;;;1.65;83.65;99230.00;5017144;28;20242;-82
2023/11/28 06:28:18;;;;;;;5.03;4.53;;;;;;;1.62;83.65;99239.44;5016533;28;20278;-82
2023/11/28 06:30:45;;;;;;;5.57;4.60;;;;;;;1.64;84.21;99240.28;5015474;28;20230;-80
2023/11/28 06:33:11;;;;;;;5.97;5.33;;;;;;;1.62;84.46;99234.28;5015903;28;20210;-81
2023/11/28 06:35:38;;;;;;;5.53;4.30;;;;;;;1.70;84.27;99228.25;5018609;28;20199;-79
2023/11/28 06:38:04;;;;;;;6.00;4.50;;;;;;;1.65;83.61;99250.59;5017348;28;20214;-79
2023/11/28 06:40:32;;;;;;;4.73;4.20;;;;;;;1.69;83.70;99260.00;5017866;28;20203;-81
2023/11/28 06:42:58;;;;;;;4.57;4.17;;;;;;;1.68;83.04;99271.13;5015291;28;20217;-81
2023/11/28 06:45:26;;;;;;;6.67;4.03;;;;;;;1.56;83.62;99266.03;5015889;28;20203;-81
2023/11/28 06:47:53;;;;;;;5.27;4.77;;;;;;;1.64;84.54;99266.84;5005884;28;20211;-83
2023/11/28 06:50:20;;;;;;;4.40;4.00;;;;;;;1.65;83.41;99278.88;5000116;28;20755;-80
2023/11/28 06:52:46;;;;;;;6.17;4.33;;;;;;;1.62;83.51;99278.88;5018057;28;20650;-85
2023/11/28 06:55:13;;;;;;;5.17;4.27;;;;;;;1.65;84.21;99286.59;5018327;28;20585;-83
2023/11/28 06:57:39;;;;;;;6.80;4.60;;;;;;;1.65;84.11;99288.31;5017195;28;20230;-82
2023/11/28 07:00:08;;;;;;;4.60;3.90;;;;;;;1.68;83.62;99299.44;5018020;28;20205;-82
2023/11/28 07:02:36;;;;;;;4.67;4.10;;;;;;;1.67;83.50;99309.75;5016894;28;20291;-81
2023/11/28 07:05:03;;;;;;;5.57;3.63;;;;;;;1.66;84.08;99314.00;5016947;28;20207;-80
2023/11/28 07:07:33;;;;;;;4.33;3.83;;;;;;;1.64;83.66;99327.75;5017298;28;20223;-80
2023/11/28 07:09:59;;;;;;;4.33;3.93;;;;;;;1.64;83.05;99340.59;5016999;28;20700;-81
2023/11/28 07:12:26;;;;;;;4.10;3.57;;;;;;;1.57;83.06;99348.31;5017833;28;20229;-82
2023/11/28 07:14:52;;;;;;;4.27;3.43;;;;;;;1.59;83.40;99349.19;5016970;28;20209;-81
2023/11/28 07:17:19;;;;;;;3.87;3.57;;;;;;;1.53;83.14;99356.91;5011855;28;20235;-81
2023/11/28 07:19:47;;;;;;;4.73;3.60;;;;;;;1.43;83.31;99360.31;4995935;28;20204;-80
2023/11/28 07:22:13;;;;;;;5.53;3.30;;;;;;;1.47;83.65;99356.91;5013119;28;20207;-81
2023/11/28 07:24:40;;;;;;;4.37;3.63;;;;;;;1.51;83.23;99357.75;5016611;28;20559;-82
2023/11/28 07:27:06;;;;;;;3.60;3.30;;;;;;;1.50;82.81;99369.75;5017014;28;20292;-83
2023/11/28 07:29:33;;;;;;;3.93;2.90;;;;;;;1.45;83.11;99392.03;5016767;28;20226;-82
2023/11/28 07:31:59;;;;;;;5.57;3.20;;;;;;;1.47;83.50;99385.19;5015798;28;20673;-79
2023/11/28 07:34:26;;;;;;;4.93;3.60;;;;;;;1.46;82.44;99393.75;5015369;28;20710;-79
2023/11/28 07:36:53;;;;;;;3.20;2.80;;;;;;;1.45;81.82;99406.59;5014620;28;20227;-79
2023/11/28 07:39:20;;;;;;;3.10;2.80;;;;;;;1.48;82.18;99422.88;5014647;28;20199;-79
2023/11/28 07:41:46;;;;;;;3.10;2.87;;;;;;;1.53;81.47;99423.75;5013931;28;20817;-81
2023/11/28 07:44:13;;;;;;;2.80;2.50;;;;;;;1.54;81.14;99440.03;5015447;28;20206;-78
2023/11/28 07:46:39;;;;;;;2.93;2.70;;;;;;;1.53;81.70;99453.78;5014813;28;20219;-78
2023/11/28 07:49:05;;;;;;;3.10;2.90;;;;;;;1.56;81.31;99467.47;5005500;28;20210;-79
2023/11/28 07:51:32;;;;;;;3.17;2.70;;;;;;;1.55;80.68;99483.78;4999086;28;20239;-78
2023/11/28 07:53:59;;;;;;;3.67;2.87;;;;;;;1.57;80.76;99500.06;5016315;28;20211;-79
2023/11/28 07:56:26;;;;;;;3.23;2.77;;;;;;;1.56;80.07;99505.19;5015070;28;20230;-79
2023/11/28 07:58:53;;;;;;;3.10;2.70;;;;;;;1.51;80.56;99514.63;5015007;28;20218;-78
2023/11/28 08:01:19;;;;;;;2.67;2.20;;;;;;;1.52;80.11;99519.75;5012965;28;20199;-78
2023/11/28 08:03:46;;;;;;;3.00;2.50;;;;;;;1.37;80.12;99524.88;5014907;28;20202;-78
2023/11/28 08:06:13;;;;;;;2.60;2.40;;;;;;;1.39;80.89;99533.44;5015112;28;20226;-79
2023/11/28 08:08:40;;;;;;;4.30;3.20;;;;;;;1.45;80.23;99537.72;5014799;28;20665;-79
2023/11/28 08:11:11;;;;;;;2.60;2.40;;;;;;;1.39;80.28;99538.59;5014118;28;20261;-80
2023/11/28 08:13:38;;;;;;;3.47;3.17;;;;;;;1.37;80.58;99540.28;5013336;28;20238;-79
2023/11/28 08:16:05;;;;;;;4.43;2.60;;;;;;;1.38;80.53;99544.56;5014786;28;20241;-78
2023/11/28 08:18:31;;;;;;;3.10;2.80;;;;;;;1.35;81.00;99545.44;5002926;28;20215;-80
2023/11/28 08:20:58;;;;;;;2.93;2.60;;;;;;;1.39;80.96;99548.88;5013544;28;20203;-77
2023/11/28 08:23:24;;;;;;;3.07;2.37;;;;;;;1.42;81.53;99548.88;5012949;28;20206;-79
2023/11/28 08:25:51;;;;;;;3.07;2.77;;;;;;;1.37;81.63;99538.56;4997853;28;20745;-79
2023/11/28 08:28:18;;;;;;;2.40;2.20;;;;;;;1.43;80.59;99553.16;5014424;28;20203;-78
2023/11/28 08:30:45;;;;;;;2.43;2.23;;;;;;;1.46;80.24;99560.03;5014353;28;20238;-80
2023/11/28 08:33:11;;;;;;;2.80;2.17;;;;;;;1.46;80.63;99568.59;5014261;28;20226;-79
2023/11/28 08:35:38;;;;;;;3.23;2.47;;;;;;;1.46;80.01;99578.03;5014752;28;20207;-79
2023/11/28 08:38:04;;;;;;;2.50;2.17;;;;;;;1.44;80.34;99590.88;5011051;28;20697;-79
2023/11/28 08:40:31;;;;;;;2.77;2.10;;;;;;;1.47;80.47;99585.75;5013980;28;20224;-80
2023/11/28 08:42:57;;;;;;;2.27;1.90;;;;;;;1.47;79.40;99605.47;5014345;28;20215;-79
2023/11/28 08:45:25;;;;;;;3.37;2.10;;;;;;;1.39;79.20;99629.44;5004226;28;20208;-78
2023/11/28 08:47:51;;;;;;;3.00;2.17;;;;;;;1.33;78.67;99638.84;5006578;28;20243;-78
2023/11/28 08:50:18;;;;;;;3.90;2.03;;;;;;;1.32;78.90;99644.81;5010466;28;20251;-78
2023/11/28 08:52:44;;;;;;;2.13;1.93;;;;;;;1.34;78.73;99656.81;5007400;28;20246;-79
2023/11/28 08:55:11;;;;;;;4.00;2.10;;;;;;;1.27;78.55;99672.19;5012339;28;20216;-78
2023/11/28 08:57:37;;;;;;;2.23;2.03;;;;;;;1.20;78.40;99684.16;5008215;28;20219;-79
2023/11/28 09:00:05;;;;;;;2.57;1.80;;;;;;;1.19;78.24;99688.44;5013628;28;20203;-77
2023/11/28 09:02:33;;;;;;;3.07;2.60;;;;;;;1.17;78.28;99690.16;5014107;28;20203;-79
2023/11/28 09:04:59;;;;;;;2.67;2.27;;;;;;;1.15;77.68;99702.13;5014288;28;20214;-79
2023/11/28 09:07:25;;;;;;;3.07;2.40;;;;;;;1.12;77.19;99712.38;5012424;28;20227;-80
2023/11/28 09:09:52;;;;;;;2.40;2.00;;;;;;;1.15;77.62;99722.69;5014129;28;20199;-80
2023/11/28 09:12:18;;;;;;;3.20;2.07;;;;;;;1.15;77.56;99721.81;5015343;28;20233;-80
2023/11/28 09:14:47;;;;;;;2.33;2.00;;;;;;;1.15;77.99;99722.69;5018759;28;20218;-80
2023/11/28 09:17:14;;;;;;;2.80;2.10;;;;;;;1.08;78.69;99731.19;5014440;28;20657;-80
2023/11/28 09:19:41;;;;;;;2.77;2.37;;;;;;;1.04;78.31;99729.44;5010820;28;20210;-79
2023/11/28 09:22:08;;;;;;;2.13;1.97;;;;;;;1.07;78.26;99729.47;5017141;28;20199;-78
2023/11/28 09:24:34;;;;;;;3.00;1.80;;;;;;;1.08;79.41;99718.34;5017969;28;20210;-78
2023/11/28 09:27:01;;;;;;;3.17;2.87;;;;;;;1.11;78.49;99708.09;5017363;28;20232;-79
2023/11/28 09:29:28;;;;;;;3.13;2.57;;;;;;;1.12;78.87;99714.09;5016609;28;20203;-77
2023/11/28 09:32:01;;;;;;;2.63;1.93;;;;;;;1.19;77.90;99716.72;5016541;28;20280;-78
2023/11/28 09:34:29;;;;;;;2.73;2.27;;;;;;;1.21;77.96;99728.72;5016709;28;20301;-77
2023/11/28 09:37:13;;;;;;;2.73;2.23;;;;;;;1.16;77.99;99734.69;5122517;23;20243;-77
2023/11/28 09:39:47;;;;;;;2.43;2.10;;;;;;;1.13;78.41;99738.94;4999228;28;20246;-78
2023/11/28 09:42:15;;;;;;;1.90;1.80;;;;;;;1.18;78.93;99725.25;4998282;28;20211;-79
2023/11/28 09:44:45;;;;;;;3.20;1.90;;;;;;;1.08;78.20;99738.91;4996780;28;20210;-78
2023/11/28 09:47:12;;;;;;;3.30;2.27;;;;;;;1.08;78.86;99735.47;4996884;28;20609;-78
2023/11/28 09:49:41;;;;;;;2.67;2.17;;;;;;;1.17;78.63;99731.28;4997401;28;20593;-78
2023/11/28 09:52:10;;;;;;;2.10;1.80;;;;;;;1.19;77.75;99736.44;4997655;28;20709;-78
2023/11/28 09:54:38;;;;;;;2.80;1.90;;;;;;;1.19;78.37;99739.00;4998681;28;20210;-78
2023/11/28 09:57:06;;;;;;;2.27;2.07;;;;;;;1.24;78.15;99737.31;4996317;28;20258;-78
2023/11/28 09:59:37;;;;;;;2.10;1.87;;;;;;;1.28;78.24;99738.19;4998068;28;20294;-77
2023/11/28 10:02:04;;;;;;;2.33;2.00;;;;;;;1.32;78.07;99747.66;4996064;28;20207;-78
2023/11/28 10:04:31;;;;;;;1.90;1.70;;;;;;;1.39;78.60;99747.72;4998734;28;20204;-78
2023/11/28 10:07:01;;;;;;;2.63;2.03;;;;;;;1.43;77.86;99748.59;4998186;28;20270;-77
2023/11/28 10:09:31;;;;;;;1.93;1.73;;;;;;;1.46;77.41;99755.47;4999090;28;20217;-78
2023/11/28 10:11:59;;;;;;;2.40;2.20;;;;;;;1.41;78.16;99751.97;4998164;28;20240;-79
2023/11/28 10:14:26;;;;;;;1.87;1.77;;;;;;;1.44;78.01;99747.72;4998403;28;20208;-77
2023/11/28 10:16:53;;;;;;;2.30;2.07;;;;;;;1.45;77.48;99757.19;4990113;28;20226;-78
2023/11/28 10:19:21;;;;;;;2.50;2.30;;;;;;;1.62;82.00;99741.84;4996243;28;20310;-77
2023/11/28 10:21:48;;;;;;;2.00;1.80;;;;;;;1.71;84.19;99656.16;4992793;28;20207;-79
2023/11/28 10:24:15;;;;;;;2.47;2.20;;;;;;;1.79;84.28;99580.72;4987609;28;20231;-77
2023/11/28 10:26:43;;;;;;;3.20;1.77;;;;;;;1.80;81.81;99597.00;4990901;28;20216;-78
2023/11/28 10:29:10;;;;;;;2.23;1.83;;;;;;;1.75;79.05;99651.03;4989607;28;20208;-79
2023/11/28 10:31:37;;;;;;;1.60;1.50;;;;;;;1.74;78.25;99698.16;4990233;28;20227;-80
2023/11/28 10:34:11;;;;;;;1.90;1.80;;;;;;;1.64;78.62;99726.44;4991043;28;20648;-80
2023/11/28 10:36:42;;;;;;;1.90;1.80;;;;;;;1.67;78.11;99734.19;4991442;28;20261;-79
2023/11/28 10:39:29;;;;;;;2.10;1.90;;;;;;;1.76;78.70;99734.22;4989830;28;20659;-80
2023/11/28 10:42:18;;;;;;;2.20;2.00;;;;;;;1.48;78.36;99756.34;4992256;28;20207;-79
2023/11/28 10:44:46;;;;;;;1.87;1.70;;;;;;;1.59;77.78;99740.13;4993444;28;20230;-81
2023/11/28 10:50:01;;;;;;;3.23;2.60;;;;;;;1.57;78.36;99769.28;4980857;28;20223;-80
2023/11/28 10:52:28;;;;;;;31.57;4.97;;;;;;;1.08;80.06;99759.47;4991553;28;20919;-80
2023/11/28 10:54:56;;;;;;;2.50;2.30;;;;;;;1.14;80.70;99717.53;4991368;28;20670;-80
2023/11/28 10:57:57;;;;;;;2.57;2.37;;;;;;;1.37;80.83;99694.56;4987523;28;20246;-79
2023/11/28 11:00:26;;;;;;;2.50;2.30;;;;;;;1.47;80.86;99692.91;4991054;28;20208;-80
2023/11/28 11:02:54;;;;;;;3.07;2.87;;;;;;;1.59;80.46;99690.41;4990552;28;20309;-82
2023/11/28 11:05:21;;;;;;;2.60;2.40;;;;;;;1.47;80.90;99700.63;4987906;28;20217;-79
2023/11/28 11:07:49;;;;;;;3.10;2.90;;;;;;;1.43;80.88;99704.88;4990225;28;20241;-80
2023/11/28 11:10:17;;;;;;;2.83;2.53;;;;;;;1.11;81.60;99700.38;4994625;28;20254;-82
2023/11/28 11:12:46;;;;;;;3.03;2.83;;;;;;;1.25;81.63;99691.88;4996004;28;20231;-80
2023/11/28 11:15:23;;;;;;;2.83;2.63;;;;;;;1.35;82.01;99666.25;4995451;28;20207;-80
2023/11/28 11:18:05;;;;;;;2.63;2.43;;;;;;;1.33;81.02;99667.13;4991218;28;20238;-81
2023/11/28 11:20:35;;;;;;;3.37;2.43;;;;;;;1.48;81.20;99669.75;5037977;22;20233;-85
2023/11/28 11:23:05;;;;;;;2.80;2.60;;;;;;;1.51;80.47;99681.78;5035204;28;20210;-86
2023/11/28 11:25:39;;;;;;;3.50;3.20;;;;;;;1.51;80.83;99698.06;5033377;28;20198;-85
2023/11/28 11:28:08;;;;;;;2.63;2.20;;;;;;;1.67;80.27;99691.28;5035892;28;20212;-85
2023/11/28 11:30:37;;;;;;;2.40;2.20;;;;;;;1.24;79.83;99716.75;5034093;28;20222;-82
2023/11/28 11:33:07;;;;;;;2.40;2.20;;;;;;;1.32;79.50;99715.09;5034263;28;20211;-84
2023/11/28 11:36:04;;;;;;;2.30;2.10;;;;;;;1.44;80.17;99716.03;5032405;28;20767;-84
2023/11/28 11:38:31;;;;;;;2.00;1.90;;;;;;;1.21;79.50;99727.03;5032122;28;20719;-85
2023/11/28 11:40:58;;;;;;;1.97;1.87;;;;;;;1.15;79.98;99727.84;5036837;28;20293;-83
2023/11/28 11:43:28;;;;;;;3.43;3.13;;;;;;;1.28;80.65;99731.34;5036783;28;20206;-85
2023/11/28 11:46:24;;;;;;;7.27;5.00;;;;;;;0.98;81.15;99729.41;5036828;28;20259;-85